Time;durP1;ratioP1;P1;durP2;ratioP2;P2;SDS_P1;SDS_P2;PMS_P1;PMS_P2;Temp;Humidity;BMP_temperature;BMP_pressure;BME280_temperature;BME280_humidity;BME280_pressure;Samples;Min_cycle;Max_cycle;Signal;HPM_P1;HPM_P2
2022/04/04 04:47:18;;;;;;;13.70;6.90;;;0.20;99.90;;;;;;2836975;22;20591;-87
2022/04/04 04:49:48;;;;;;;11.50;7.13;;;0.20;99.90;;;;;;5042901;28;20716;-87
2022/04/04 04:52:15;;;;;;;11.98;6.90;;;0.30;99.90;;;;;;5043713;28;20630;-86
2022/04/04 04:54:42;;;;;;;13.70;8.35;;;0.30;99.90;;;;;;5051477;28;20686;-86
2022/04/04 04:57:10;;;;;;;16.30;7.88;;;0.20;99.90;;;;;;5050384;28;20253;-86
2022/04/04 04:59:37;;;;;;;14.20;6.93;;;0.10;99.90;;;;;;5041327;28;20281;-86
2022/04/04 05:02:04;;;;;;;12.60;7.20;;;0.00;99.90;;;;;;5041172;28;20223;-86
2022/04/04 05:04:32;;;;;;;10.73;6.60;;;0.10;99.90;;;;;;5044348;28;20289;-86
2022/04/04 05:06:59;;;;;;;10.95;7.32;;;0.00;99.90;;;;;;5044259;28;20293;-87
2022/04/04 05:09:29;;;;;;;9.38;6.78;;;0.00;99.90;;;;;;5044018;28;20248;-87
2022/04/04 05:11:56;;;;;;;11.27;6.80;;;0.30;99.90;;;;;;5044843;28;20202;-87
2022/04/04 05:14:23;;;;;;;11.15;7.18;;;0.00;99.90;;;;;;5044199;28;20241;-86
2022/04/04 05:16:50;;;;;;;10.95;7.10;;;0.10;99.90;;;;;;5043569;28;20226;-85
2022/04/04 05:19:18;;;;;;;9.55;6.40;;;0.00;99.90;;;;;;5044909;28;20241;-86
2022/04/04 05:21:47;;;;;;;9.85;7.15;;;0.00;99.90;;;;;;5044812;28;20703;-85
2022/04/04 05:24:14;;;;;;;14.35;7.63;;;0.10;99.90;;;;;;5046034;28;20207;-86
2022/04/04 05:26:41;;;;;;;14.25;8.02;;;0.20;99.90;;;;;;5048354;28;20257;-88
2022/04/04 05:29:11;;;;;;;20.70;12.27;;;0.00;99.90;;;;;;5050531;28;20317;-87
2022/04/04 05:31:38;;;;;;;14.93;8.77;;;0.00;99.90;;;;;;5048800;28;20219;-87
2022/04/04 05:34:05;;;;;;;14.05;7.90;;;0.20;99.90;;;;;;5048293;28;20206;-87
2022/04/04 05:36:33;;;;;;;25.20;11.70;;;0.20;99.90;;;;;;5047174;28;20223;-86
2022/04/04 05:39:01;;;;;;;16.92;10.57;;;0.00;99.90;;;;;;5052583;28;20257;-86
2022/04/04 05:41:28;;;;;;;14.48;9.73;;;0.00;99.90;;;;;;5060904;28;20206;-84
2022/04/04 05:43:55;;;;;;;16.83;8.57;;;0.20;99.90;;;;;;5058932;28;20227;-87
2022/04/04 05:46:22;;;;;;;14.40;9.05;;;0.30;99.90;;;;;;5054597;28;20231;-87
2022/04/04 05:48:50;;;;;;;25.95;9.75;;;0.30;99.90;;;;;;5051812;28;20309;-87
2022/04/04 05:51:18;;;;;;;16.35;8.10;;;0.30;99.90;;;;;;5050148;28;20227;-86
2022/04/04 05:53:46;;;;;;;14.85;8.02;;;0.50;99.90;;;;;;5049348;28;20253;-88
2022/04/04 05:56:14;;;;;;;11.55;8.00;;;0.30;99.90;;;;;;5047516;28;20306;-86
2022/04/04 05:58:41;;;;;;;13.85;8.15;;;0.40;99.90;;;;;;5044019;28;20214;-87
2022/04/04 06:01:09;;;;;;;12.07;7.50;;;0.70;99.90;;;;;;5046280;28;20210;-87
2022/04/04 06:03:36;;;;;;;12.90;8.40;;;0.50;99.90;;;;;;5045029;28;20203;-87
2022/04/04 06:06:03;;;;;;;17.60;7.70;;;0.80;99.90;;;;;;5047064;28;20216;-86
2022/04/04 06:08:30;;;;;;;11.50;8.68;;;0.80;99.90;;;;;;5049103;28;20223;-87
2022/04/04 06:10:57;;;;;;;10.35;7.28;;;0.80;99.90;;;;;;5047875;28;20202;-88
2022/04/04 06:13:25;;;;;;;12.63;7.65;;;1.00;99.90;;;;;;5054468;28;20201;-87
2022/04/04 06:15:53;;;;;;;10.57;7.55;;;0.90;99.90;;;;;;5056080;28;20226;-85
2022/04/04 06:18:20;;;;;;;11.93;7.70;;;1.00;99.90;;;;;;5049776;28;20227;-88
2022/04/04 06:20:47;;;;;;;14.45;7.90;;;1.20;99.90;;;;;;5045000;28;20187;-84
2022/04/04 06:23:14;;;;;;;11.35;8.05;;;1.10;99.90;;;;;;5044445;28;20226;-86
2022/04/04 06:25:41;;;;;;;11.88;7.60;;;1.30;99.90;;;;;;5046305;28;20256;-84
2022/04/04 06:28:09;;;;;;;13.20;7.70;;;1.40;99.90;;;;;;5046326;28;20700;-84
2022/04/04 06:30:37;;;;;;;12.73;7.35;;;1.40;99.90;;;;;;5046575;28;20755;-87
2022/04/04 06:33:07;;;;;;;11.15;7.32;;;1.50;99.90;;;;;;5046875;28;20561;-88
2022/04/04 06:36:00;;;;;;;14.00;8.55;;;1.50;99.90;;;;;;5046727;28;20210;-85
2022/04/04 06:38:26;;;;;;;11.55;7.05;;;1.50;99.90;;;;;;5043243;28;20214;-86
2022/04/04 06:40:55;;;;;;;11.02;7.25;;;1.10;99.90;;;;;;5043782;28;20214;-88
2022/04/04 06:43:22;;;;;;;9.90;6.65;;;1.50;99.90;;;;;;5045752;28;20215;-87
2022/04/04 06:45:51;;;;;;;12.13;7.32;;;1.70;99.90;;;;;;5043395;28;20214;-87
2022/04/04 06:48:18;;;;;;;10.05;6.68;;;1.90;99.90;;;;;;5042397;28;20231;-87
2022/04/04 06:50:45;;;;;;;12.75;7.40;;;1.60;99.90;;;;;;5042231;28;20223;-88
2022/04/04 06:53:12;;;;;;;9.75;6.63;;;1.70;99.90;;;;;;5042753;28;20222;-87
2022/04/04 06:55:39;;;;;;;11.25;7.10;;;1.90;99.90;;;;;;5042181;28;20295;-86
2022/04/04 06:58:07;;;;;;;11.43;7.70;;;2.10;99.90;;;;;;5043706;28;20336;-87
2022/04/04 07:00:34;;;;;;;11.20;7.05;;;2.10;99.90;;;;;;5044212;28;20552;-87
2022/04/04 07:03:03;;;;;;;10.65;6.68;;;2.50;99.90;;;;;;5042877;28;20256;-87
2022/04/04 07:05:30;;;;;;;12.90;7.80;;;2.60;99.90;;;;;;5041277;28;20210;-86
2022/04/04 07:07:57;;;;;;;11.50;6.50;;;2.60;99.90;;;;;;5041145;28;20230;-88
2022/04/04 07:10:24;;;;;;;14.40;6.95;;;2.80;99.90;;;;;;5042511;28;20213;-88
2022/04/04 07:12:50;;;;;;;12.00;6.10;;;2.90;99.90;;;;;;5043338;28;20249;-87
2022/04/04 07:15:19;;;;;;;15.82;7.35;;;2.90;99.90;;;;;;5040908;28;20207;-88
2022/04/04 07:17:47;;;;;;;11.95;6.75;;;3.00;99.90;;;;;;5040929;28;20288;-87
2022/04/04 07:20:15;;;;;;;11.18;7.38;;;3.00;99.90;;;;;;5053488;28;20219;-86
2022/04/04 07:22:44;;;;;;;12.15;7.35;;;3.00;99.90;;;;;;5058728;28;20183;-84
2022/04/04 07:25:14;;;;;;;12.80;8.35;;;3.20;99.90;;;;;;5058450;28;20221;-82
2022/04/04 07:27:43;;;;;;;10.93;6.28;;;3.30;99.90;;;;;;5058413;28;20202;-86
2022/04/04 07:30:12;;;;;;;12.90;6.18;;;3.30;99.90;;;;;;5058455;28;20179;-84
2022/04/04 07:32:40;;;;;;;15.80;8.43;;;3.30;99.90;;;;;;5058314;28;20207;-87
2022/04/04 07:35:11;;;;;;;12.68;6.30;;;3.50;99.90;;;;;;5054751;28;20206;-85
2022/04/04 07:37:41;;;;;;;10.20;5.07;;;3.90;99.90;;;;;;5051311;28;20234;-86
2022/04/04 07:40:10;;;;;;;8.10;5.85;;;3.70;99.90;;;;;;5045471;28;20211;-87
2022/04/04 07:42:38;;;;;;;11.15;6.40;;;3.80;99.90;;;;;;5042770;28;20217;-87
2022/04/04 07:45:06;;;;;;;14.38;5.88;;;3.70;99.90;;;;;;5041891;28;20664;-86
2022/04/04 07:47:33;;;;;;;7.65;5.90;;;3.80;99.70;;;;;;5044914;28;20249;-85
2022/04/04 07:50:00;;;;;;;11.40;6.15;;;4.10;99.60;;;;;;5043957;28;20245;-86
2022/04/04 07:52:27;;;;;;;8.30;6.07;;;4.20;99.20;;;;;;5043762;28;20297;-86
2022/04/04 07:54:56;;;;;;;10.32;5.45;;;4.20;99.10;;;;;;5047180;28;20295;-86
2022/04/04 07:57:23;;;;;;;12.00;6.32;;;4.30;99.30;;;;;;5051594;28;20223;-86
2022/04/04 07:59:51;;;;;;;9.05;5.95;;;4.40;99.10;;;;;;5044872;28;20230;-86
2022/04/04 08:02:18;;;;;;;9.00;6.75;;;4.50;98.70;;;;;;5045155;28;20669;-85
2022/04/04 08:04:46;;;;;;;10.18;6.13;;;4.70;97.40;;;;;;5050478;28;20211;-87
2022/04/04 08:07:15;;;;;;;14.98;6.55;;;4.40;96.00;;;;;;5049038;28;20723;-85
2022/04/04 08:09:42;;;;;;;9.20;6.82;;;4.30;95.40;;;;;;5051930;28;20218;-88
2022/04/04 08:12:11;;;;;;;11.35;6.60;;;4.60;95.00;;;;;;5047454;28;20262;-86
2022/04/04 08:14:38;;;;;;;14.18;6.15;;;4.50;94.30;;;;;;5047011;28;20652;-86
2022/04/04 08:17:06;;;;;;;11.48;6.10;;;4.70;94.00;;;;;;5043478;28;20253;-86
2022/04/04 08:19:35;;;;;;;9.20;6.40;;;4.70;93.50;;;;;;5042980;28;20302;-87
2022/04/04 08:22:02;;;;;;;12.30;6.82;;;5.20;93.40;;;;;;5040194;28;20221;-87
2022/04/04 08:24:30;;;;;;;9.45;5.43;;;5.20;93.50;;;;;;5040678;28;20209;-87
2022/04/04 08:26:57;;;;;;;13.25;6.60;;;5.00;92.90;;;;;;5041348;28;20288;-86
2022/04/04 08:29:26;;;;;;;10.95;6.15;;;5.30;92.90;;;;;;5042939;28;20682;-87
2022/04/04 08:31:56;;;;;;;8.77;6.20;;;5.20;92.10;;;;;;5041861;28;20567;-87
2022/04/04 08:34:23;;;;;;;9.93;6.30;;;5.50;91.80;;;;;;5039484;28;20227;-86
2022/04/04 08:36:50;;;;;;;9.20;6.50;;;5.50;91.70;;;;;;5038826;28;20244;-86
2022/04/04 08:39:17;;;;;;;8.30;5.88;;;5.60;91.90;;;;;;5039146;28;20207;-88
2022/04/04 08:41:44;;;;;;;8.73;6.95;;;5.80;91.20;;;;;;5044450;28;20202;-86
2022/04/04 08:44:11;;;;;;;10.43;6.32;;;5.90;90.50;;;;;;5038922;28;20314;-85
2022/04/04 08:46:41;;;;;;;9.25;6.10;;;5.70;90.30;;;;;;5039941;28;20612;-86
2022/04/04 08:49:09;;;;;;;7.88;5.63;;;5.70;89.80;;;;;;5040468;28;20211;-87
2022/04/04 08:51:36;;;;;;;10.05;5.90;;;5.70;89.40;;;;;;5046255;28;20591;-86
2022/04/04 08:54:03;;;;;;;8.95;5.85;;;5.50;88.00;;;;;;5054248;28;20210;-86
2022/04/04 08:56:31;;;;;;;10.23;6.03;;;5.60;88.40;;;;;;5047794;28;20257;-87
2022/04/04 08:59:00;;;;;;;9.80;5.95;;;5.70;87.40;;;;;;5042944;28;20210;-87
2022/04/04 09:01:34;;;;;;;9.18;6.50;;;5.80;88.00;;;;;;5040674;28;20214;-86
2022/04/04 09:04:16;;;;;;;10.50;5.80;;;5.80;86.30;;;;;;5045732;28;20234;-86
2022/04/04 09:06:50;;;;;;;7.57;5.40;;;6.00;86.40;;;;;;5049178;28;20256;-86
2022/04/04 09:09:24;;;;;;;11.30;6.25;;;6.10;82.70;;;;;;5041815;28;20230;-86
2022/04/04 09:12:06;;;;;;;8.65;5.97;;;6.00;81.90;;;;;;5042896;28;20290;-86
2022/04/04 09:14:37;;;;;;;8.32;6.50;;;5.80;80.30;;;;;;5042170;28;20197;-85
2022/04/04 09:17:08;;;;;;;8.82;5.45;;;6.20;80.30;;;;;;5042881;28;20227;-86
2022/04/04 09:19:37;;;;;;;8.57;5.57;;;6.20;78.50;;;;;;5042071;28;20191;-85
2022/04/04 09:22:06;;;;;;;8.48;5.65;;;6.30;78.40;;;;;;5043148;28;20217;-85
2022/04/04 09:24:47;;;;;;;9.10;5.95;;;6.30;77.10;;;;;;5044456;28;20210;-88
2022/04/04 09:27:18;;;;;;;8.05;5.72;;;6.50;77.30;;;;;;5052219;28;20261;-88
2022/04/04 09:29:46;;;;;;;8.52;5.55;;;6.50;75.60;;;;;;5055481;28;20219;-85
2022/04/04 09:32:15;;;;;;;6.60;5.43;;;6.40;72.80;;;;;;5056463;28;20254;-86
2022/04/04 09:35:02;;;;;;;8.48;5.90;;;6.50;73.80;;;;;;5050120;28;20227;-86
2022/04/04 09:37:34;;;;;;;9.27;5.95;;;6.50;73.40;;;;;;5042691;28;20300;-85
2022/04/04 09:40:10;;;;;;;7.45;5.50;;;6.40;73.90;;;;;;5042239;28;20210;-86
2022/04/04 09:42:37;;;;;;;7.25;5.20;;;6.40;73.10;;;;;;5042920;28;20262;-87
2022/04/04 09:45:06;;;;;;;7.75;5.20;;;6.50;73.00;;;;;;5042441;28;20234;-87
2022/04/04 09:47:48;;;;;;;8.27;5.65;;;6.50;73.60;;;;;;5038835;28;20285;-88
2022/04/04 09:50:35;;;;;;;8.18;5.80;;;6.60;72.70;;;;;;5048559;28;20241;-86
2022/04/04 09:53:03;;;;;;;7.22;5.80;;;6.70;74.00;;;;;;5043796;28;20207;-86
2022/04/04 09:55:31;;;;;;;25.92;13.48;;;6.70;73.90;;;;;;5043594;28;20380;-85
2022/04/04 09:58:03;;;;;;;8.75;6.63;;;6.70;74.20;;;;;;5044843;28;20306;-86
2022/04/04 10:00:30;;;;;;;7.82;5.82;;;6.70;75.40;;;;;;5046564;28;20207;-86
2022/04/04 10:02:59;;;;;;;7.00;5.75;;;6.80;76.80;;;;;;5046683;28;20222;-88
2022/04/04 10:05:27;;;;;;;8.57;6.00;;;6.80;75.40;;;;;;5050591;28;20221;-85
2022/04/04 10:07:57;;;;;;;8.95;5.80;;;6.90;76.30;;;;;;5047483;28;20317;-85
2022/04/04 10:10:27;;;;;;;9.60;6.32;;;6.90;76.70;;;;;;5048437;28;20223;-89
2022/04/04 10:12:54;;;;;;;7.80;5.70;;;6.80;78.50;;;;;;5050661;28;20199;-86
2022/04/04 10:15:22;;;;;;;8.20;6.43;;;6.90;79.10;;;;;;5054047;28;20234;-85
2022/04/04 10:17:50;;;;;;;11.00;6.22;;;6.80;80.10;;;;;;5059222;28;20222;-86
2022/04/04 10:20:24;;;;;;;7.55;5.40;;;6.90;80.50;;;;;;5058887;28;20207;-85
2022/04/04 10:23:07;;;;;;;10.95;7.45;;;7.00;81.00;;;;;;5049995;28;20215;-86
2022/04/04 10:25:35;;;;;;;9.73;5.90;;;6.90;80.90;;;;;;5048186;28;20210;-86
2022/04/04 10:28:05;;;;;;;8.40;6.55;;;7.00;81.30;;;;;;5045490;28;20288;-87
2022/04/04 10:30:34;;;;;;;8.88;6.95;;;7.00;81.50;;;;;;5048870;28;20676;-87
2022/04/04 10:33:03;;;;;;;11.80;6.72;;;7.00;81.40;;;;;;5050764;28;20313;-87
2022/04/04 10:35:32;;;;;;;10.20;6.43;;;7.10;81.90;;;;;;5048366;28;20221;-87
2022/04/04 10:38:03;;;;;;;11.15;6.70;;;7.30;82.60;;;;;;5047294;28;20675;-86
2022/04/04 10:40:33;;;;;;;9.63;6.68;;;7.40;81.60;;;;;;5045156;28;20668;-88
2022/04/04 10:43:15;;;;;;;8.90;6.82;;;7.50;80.90;;;;;;5050252;28;20203;-86
2022/04/04 10:45:53;;;;;;;10.65;7.55;;;7.60;80.80;;;;;;5048226;28;20193;-86
2022/04/04 11:24:53;;;;;;;;;;;;;;;;;;;;;
2022/04/04 13:31:08;;;;;;;9.60;6.45;;;9.20;73.00;;;;;;4948217;29;20295;-86
2022/04/04 13:34:27;;;;;;;8.40;5.90;;;9.30;72.10;;;;;;4955995;28;20204;-86
2022/04/04 13:56:49;;;;;;;8.27;5.70;;;9.80;70.80;;;;;;5020373;28;20211;-87
2022/04/04 14:03:13;;;;;;;7.30;6.00;;;10.00;69.70;;;;;;4986770;28;20223;-86
2022/04/04 14:23:52;;;;;;;8.03;5.80;;;10.20;68.80;;;;;;5041288;28;20476;-87
2022/04/04 14:34:16;;;;;;;;;;;;;;;;;;;;;
2022/04/04 16:49:47;;;;;;;7.43;5.13;;;9.60;75.40;;;;;;5064126;28;20980;-88
2022/04/04 16:52:14;;;;;;;9.70;5.50;;;9.60;75.70;;;;;;5067252;28;20756;-86
2022/04/04 16:54:41;;;;;;;7.45;5.82;;;9.70;76.00;;;;;;5068131;28;20486;-87
2022/04/04 16:57:08;;;;;;;10.48;6.20;;;9.70;75.90;;;;;;5072012;28;20198;-87
2022/04/04 16:59:35;;;;;;;7.85;5.85;;;9.70;76.30;;;;;;5068550;28;20297;-87
2022/04/04 17:02:02;;;;;;;7.10;5.40;;;9.70;76.80;;;;;;5064853;28;20232;-87
2022/04/04 17:04:29;;;;;;;7.95;5.72;;;9.70;76.80;;;;;;5060835;28;20202;-85
2022/04/04 17:07:00;;;;;;;9.60;7.00;;;9.70;77.00;;;;;;5062995;28;20210;-86
2022/04/04 17:09:27;;;;;;;8.02;5.80;;;9.60;77.50;;;;;;5063430;28;20476;-85
2022/04/04 17:11:57;;;;;;;7.13;5.30;;;9.70;77.30;;;;;;5074998;28;20245;-86
2022/04/04 17:14:24;;;;;;;8.52;5.80;;;9.70;77.80;;;;;;5075005;28;20266;-87
2022/04/04 17:16:53;;;;;;;9.32;5.00;;;9.70;78.10;;;;;;5061117;28;20206;-86
2022/04/04 17:19:23;;;;;;;9.82;5.88;;;9.70;78.20;;;;;;5059980;28;20225;-87
2022/04/04 17:21:51;;;;;;;7.45;5.65;;;9.60;77.80;;;;;;5060093;28;20663;-86
2022/04/04 17:24:25;;;;;;;7.72;6.55;;;9.60;78.70;;;;;;5065152;28;20206;-86
2022/04/04 17:26:55;;;;;;;9.43;6.07;;;9.60;79.50;;;;;;5065281;28;20229;-87
2022/04/04 17:29:26;;;;;;;12.88;6.45;;;9.50;79.40;;;;;;5061360;28;20323;-87
2022/04/04 17:31:55;;;;;;;10.50;5.90;;;9.60;78.70;;;;;;5061497;28;20217;-87
2022/04/04 17:34:29;;;;;;;8.50;5.80;;;9.60;78.30;;;;;;5061965;28;20218;-88
2022/04/04 17:36:56;;;;;;;11.53;6.23;;;9.50;78.50;;;;;;5063150;28;20620;-87
2022/04/04 17:39:24;;;;;;;14.83;6.27;;;9.50;78.30;;;;;;5059230;28;20490;-87
2022/04/04 17:41:52;;;;;;;7.20;5.35;;;9.50;78.40;;;;;;5058999;28;20440;-87
2022/04/04 17:44:25;;;;;;;8.15;6.15;;;9.50;78.40;;;;;;5059361;28;20212;-85
2022/04/04 17:46:52;;;;;;;10.13;6.50;;;9.40;78.50;;;;;;5060668;28;20222;-87
2022/04/04 17:49:19;;;;;;;10.20;6.57;;;9.40;79.40;;;;;;5059261;28;20861;-87
2022/04/04 17:51:46;;;;;;;7.78;5.28;;;9.40;79.10;;;;;;5059314;28;20238;-87
2022/04/04 17:54:16;;;;;;;10.13;6.38;;;9.30;80.30;;;;;;5059324;28;20647;-85
2022/04/04 17:56:47;;;;;;;9.27;5.82;;;9.20;79.70;;;;;;5060082;28;20217;-87
2022/04/04 17:59:15;;;;;;;10.05;6.43;;;9.20;79.60;;;;;;5060723;28;20280;-88
2022/04/04 18:01:42;;;;;;;9.27;6.25;;;9.20;79.60;;;;;;5059876;28;20206;-86
2022/04/04 18:04:15;;;;;;;9.05;6.05;;;9.30;78.80;;;;;;5060099;28;20324;-86
2022/04/04 18:06:45;;;;;;;8.43;6.13;;;9.10;79.20;;;;;;5059261;28;20213;-86
2022/04/04 18:09:17;;;;;;;8.00;6.25;;;9.10;79.50;;;;;;5059791;28;20238;-86
2022/04/04 18:11:49;;;;;;;8.82;5.63;;;9.30;79.40;;;;;;5062737;28;20305;-87
2022/04/04 18:14:19;;;;;;;7.80;6.10;;;9.30;78.50;;;;;;5070141;28;20269;-87
2022/04/04 18:16:48;;;;;;;8.57;6.70;;;9.20;78.40;;;;;;5078225;28;20209;-87
2022/04/04 18:19:24;;;;;;;11.13;6.32;;;9.30;78.50;;;;;;5071895;28;20252;-87
2022/04/04 18:21:57;;;;;;;8.93;6.18;;;9.20;78.50;;;;;;5070405;28;20193;-86
2022/04/04 18:24:28;;;;;;;8.13;5.63;;;9.10;78.40;;;;;;5067498;28;20198;-85
2022/04/04 18:26:56;;;;;;;19.70;9.63;;;9.20;78.50;;;;;;5064741;28;20581;-86
2022/04/04 18:29:27;;;;;;;7.80;5.88;;;9.20;78.20;;;;;;5066655;28;20261;-86
2022/04/04 18:31:59;;;;;;;7.68;5.60;;;9.20;78.10;;;;;;5063445;28;20206;-86
2022/04/04 18:34:30;;;;;;;8.52;5.50;;;9.10;77.80;;;;;;5062231;28;20671;-86
2022/04/04 18:37:00;;;;;;;7.53;5.55;;;9.20;78.50;;;;;;5061945;28;20202;-85
2022/04/04 18:39:31;;;;;;;8.75;5.88;;;9.10;78.70;;;;;;5062365;28;20230;-87
2022/04/04 18:42:00;;;;;;;11.93;6.35;;;9.10;79.20;;;;;;5062047;28;20315;-87
2022/04/04 18:44:35;;;;;;;10.95;6.03;;;9.10;79.30;;;;;;5064801;28;20191;-85
2022/04/04 18:47:03;;;;;;;11.30;6.20;;;9.00;79.30;;;;;;5073994;28;20223;-87
2022/04/04 18:49:45;;;;;;;11.80;6.38;;;8.90;82.30;;;;;;5077891;28;20210;-87
2022/04/04 18:52:15;;;;;;;9.38;6.32;;;8.80;86.20;;;;;;5065951;28;20225;-88
2022/04/04 18:55:19;;;;;;;8.20;5.88;;;8.60;87.40;;;;;;5064817;28;20248;-88
2022/04/04 18:57:54;;;;;;;9.50;6.85;;;8.60;86.00;;;;;;5064798;28;20214;-87
2022/04/04 19:00:33;;;;;;;8.98;6.40;;;8.50;86.10;;;;;;5065594;28;20206;-88
2022/04/04 19:06:07;;;;;;;10.45;6.53;;;8.70;85.50;;;;;;5072041;28;20217;-88
2022/04/04 19:11:38;;;;;;;9.65;7.00;;;8.70;83.40;;;;;;5061355;28;20265;-86
2022/04/04 19:17:15;;;;;;;9.02;6.25;;;8.60;83.40;;;;;;5070430;28;20209;-88
2022/04/04 19:19:58;;;;;;;8.90;5.90;;;8.70;82.80;;;;;;5064032;28;20258;-86
2022/04/04 19:22:48;;;;;;;;;;;;;;;;;;;;;
2022/04/04 19:25:21;;;;;;;9.25;6.63;;;8.80;82.70;;;;;;5066253;28;20221;-87
2022/04/04 19:28:16;;;;;;;9.65;6.93;;;8.70;82.60;;;;;;5063984;28;20233;-85
2022/04/04 19:31:22;;;;;;;8.98;6.10;;;8.80;82.90;;;;;;5034519;28;20297;-87
2022/04/04 19:33:51;;;;;;;7.65;5.50;;;8.80;82.50;;;;;;5072530;28;20225;-87
2022/04/04 19:36:21;;;;;;;8.18;5.82;;;8.80;82.50;;;;;;5074907;28;20210;-88
2022/04/04 19:38:59;;;;;;;8.43;6.38;;;8.80;82.90;;;;;;5066343;28;20230;-88
2022/04/04 19:41:40;;;;;;;8.35;5.90;;;8.90;82.90;;;;;;5064124;28;20205;-85
2022/04/04 19:44:20;;;;;;;7.70;6.00;;;9.00;82.70;;;;;;5065735;28;20673;-86
2022/04/04 19:47:05;;;;;;;9.00;7.22;;;8.90;82.70;;;;;;5064827;28;20255;-87
2022/04/04 19:49:33;;;;;;;10.90;7.03;;;8.90;84.60;;;;;;5065453;28;20275;-86
2022/04/04 19:52:01;;;;;;;8.65;7.00;;;8.80;85.90;;;;;;5067871;28;20229;-86
2022/04/04 19:54:28;;;;;;;9.32;7.03;;;8.70;86.70;;;;;;5065068;28;20214;-87
2022/04/04 19:56:57;;;;;;;7.68;6.25;;;8.70;87.10;;;;;;5064306;28;20218;-88
2022/04/04 19:59:26;;;;;;;9.63;6.43;;;8.60;87.50;;;;;;5064296;28;20240;-87
2022/04/04 20:01:55;;;;;;;11.80;7.60;;;8.50;87.70;;;;;;5064118;28;20218;-86
2022/04/04 20:04:27;;;;;;;8.20;6.53;;;8.50;88.20;;;;;;5061959;28;20289;-88
2022/04/04 20:07:10;;;;;;;;;;;;;;;;;;;;;
2022/04/04 20:09:39;;;;;;;9.65;6.32;;;8.50;87.90;;;;;;5061490;28;20206;-87
2022/04/04 20:12:24;;;;;;;11.57;7.18;;;8.60;88.10;;;;;;5062674;28;20225;-88
2022/04/04 20:14:51;;;;;;;8.68;7.03;;;8.60;88.50;;;;;;5062900;28;20653;-87
2022/04/04 20:20:41;;;;;;;12.23;7.25;;;8.50;88.70;;;;;;5058581;28;20282;-86
2022/04/04 20:23:15;;;;;;;10.27;7.15;;;8.50;88.50;;;;;;5065106;28;20194;-89
2022/04/04 20:25:44;;;;;;;8.90;6.60;;;8.50;88.30;;;;;;5071410;28;20201;-86
2022/04/04 20:28:48;;;;;;;;;;;;;;;;;;;;;
2022/04/04 20:34:46;;;;;;;8.60;6.70;;;8.60;88.80;;;;;;5059870;28;20511;-87
2022/04/04 20:37:16;;;;;;;8.30;6.70;;;8.60;89.60;;;;;;5075243;28;20190;-85
2022/04/04 20:39:45;;;;;;;10.23;7.57;;;8.50;90.30;;;;;;5077580;28;20206;-85
2022/04/04 20:42:15;;;;;;;10.73;7.40;;;8.40;90.50;;;;;;5073841;28;20285;-87
2022/04/04 20:44:43;;;;;;;9.50;7.05;;;8.30;90.60;;;;;;5065671;28;20269;-86
2022/04/04 20:47:13;;;;;;;10.45;7.72;;;8.40;90.80;;;;;;5062892;28;20234;-87
2022/04/04 20:49:43;;;;;;;8.95;7.10;;;8.40;91.10;;;;;;5062530;28;20218;-86
2022/04/04 20:52:20;;;;;;;9.05;7.60;;;8.40;91.30;;;;;;5061830;28;20313;-88
2022/04/04 20:55:02;;;;;;;;;;;;;;;;;;;;;
2022/04/04 20:57:43;;;;;;;10.88;7.60;;;8.40;91.60;;;;;;5070188;28;20257;-87
2022/04/04 21:00:14;;;;;;;8.77;6.95;;;8.30;91.60;;;;;;5062789;28;20214;-87
2022/04/04 21:02:41;;;;;;;11.15;6.90;;;8.40;91.80;;;;;;5060975;28;20229;-87
2022/04/04 21:05:10;;;;;;;10.40;7.50;;;8.20;92.10;;;;;;5060700;28;20301;-86
2022/04/04 21:07:37;;;;;;;11.52;8.05;;;8.20;92.30;;;;;;5072090;28;20233;-86
2022/04/04 21:10:05;;;;;;;9.60;7.75;;;8.20;92.50;;;;;;5068967;28;20210;-87
2022/04/04 21:12:32;;;;;;;10.25;7.68;;;8.20;92.50;;;;;;5060190;28;20213;-87
2022/04/04 21:14:59;;;;;;;9.75;7.40;;;8.20;92.50;;;;;;5059286;28;20210;-86
2022/04/04 21:17:26;;;;;;;9.27;7.43;;;8.30;92.60;;;;;;5061202;28;20660;-87
2022/04/04 21:19:58;;;;;;;9.82;7.45;;;8.30;92.60;;;;;;5062603;28;20312;-87
2022/04/04 21:22:26;;;;;;;11.05;7.88;;;8.30;92.60;;;;;;5060865;28;20217;-86
2022/04/04 21:24:56;;;;;;;10.75;7.47;;;8.40;92.50;;;;;;5059931;28;20611;-86
2022/04/04 21:27:23;;;;;;;11.27;7.25;;;8.30;92.20;;;;;;5062769;28;20626;-88
2022/04/04 21:29:51;;;;;;;12.55;8.88;;;8.20;92.40;;;;;;5065625;28;20194;-88
2022/04/04 21:32:18;;;;;;;10.52;7.82;;;8.30;92.50;;;;;;5072069;28;20213;-88
2022/04/04 21:34:45;;;;;;;10.05;6.75;;;8.30;92.70;;;;;;5067320;28;20214;-89
2022/04/04 21:37:16;;;;;;;9.07;7.82;;;8.30;92.60;;;;;;5060669;28;20242;-87
2022/04/04 21:39:45;;;;;;;11.73;8.30;;;8.30;92.40;;;;;;5060785;28;20252;-87
2022/04/04 21:42:12;;;;;;;9.48;7.05;;;8.30;92.70;;;;;;5059533;28;20209;-87
2022/04/04 21:44:39;;;;;;;10.45;7.72;;;8.30;92.70;;;;;;5061145;28;20547;-87
2022/04/04 21:47:06;;;;;;;9.27;7.25;;;8.30;92.80;;;;;;5062427;28;20225;-87
2022/04/04 21:49:33;;;;;;;10.23;7.30;;;8.40;92.60;;;;;;5062633;28;20620;-87
2022/04/04 21:52:00;;;;;;;11.40;7.75;;;8.40;92.60;;;;;;5061981;28;20260;-88
2022/04/04 21:54:30;;;;;;;9.73;7.80;;;8.40;92.60;;;;;;5061996;28;20217;-86
2022/04/04 21:57:02;;;;;;;13.25;7.95;;;8.30;92.90;;;;;;5063540;28;20213;-88
2022/04/04 21:59:29;;;;;;;10.63;6.88;;;8.20;93.10;;;;;;5066931;28;20234;-85
2022/04/04 22:01:58;;;;;;;9.98;7.43;;;8.30;93.30;;;;;;5059491;28;20612;-85
2022/04/04 22:04:26;;;;;;;8.85;7.03;;;8.10;93.80;;;;;;5059397;28;20221;-87
2022/04/04 22:06:53;;;;;;;8.38;6.80;;;8.20;93.80;;;;;;5061385;28;20273;-87
2022/04/04 22:09:20;;;;;;;10.73;6.45;;;8.10;94.10;;;;;;5067547;28;20230;-89
2022/04/04 22:11:47;;;;;;;8.90;7.10;;;8.10;94.40;;;;;;5064842;28;20661;-86
2022/04/04 22:14:17;;;;;;;10.38;7.40;;;8.00;94.60;;;;;;5078128;28;20229;-88
2022/04/04 22:16:44;;;;;;;10.10;7.20;;;8.10;94.70;;;;;;5068691;28;20202;-87
2022/04/04 22:19:11;;;;;;;8.60;7.10;;;8.00;95.00;;;;;;5065346;28;20256;-87
2022/04/04 22:21:38;;;;;;;10.05;7.65;;;8.00;95.10;;;;;;5063824;28;20701;-88
2022/04/04 22:24:06;;;;;;;8.95;6.68;;;8.00;95.10;;;;;;5063338;28;20305;-87
2022/04/04 22:26:33;;;;;;;10.98;7.80;;;8.10;95.40;;;;;;5067222;28;20217;-88
2022/04/04 22:28:59;;;;;;;11.45;7.60;;;8.00;95.70;;;;;;5063393;28;20226;-87
2022/04/04 22:31:28;;;;;;;10.50;7.05;;;8.00;96.10;;;;;;5063040;28;20221;-89
2022/04/04 22:33:55;;;;;;;9.73;6.97;;;7.90;96.40;;;;;;5063790;28;20239;-87
2022/04/04 22:36:22;;;;;;;10.18;6.85;;;8.00;96.50;;;;;;5074837;28;20236;-84
2022/04/04 22:38:49;;;;;;;9.77;7.70;;;8.00;96.70;;;;;;5079772;28;20324;-86
2022/04/04 22:41:16;;;;;;;10.65;7.13;;;8.00;96.60;;;;;;5076915;28;20711;-87
2022/04/04 22:43:43;;;;;;;13.40;7.97;;;8.00;96.90;;;;;;5063043;28;20233;-87
2022/04/04 22:46:09;;;;;;;10.45;7.05;;;7.90;97.30;;;;;;5061901;28;20245;-87
2022/04/04 22:48:38;;;;;;;10.32;7.38;;;7.80;97.70;;;;;;5060583;28;20312;-87
2022/04/04 22:51:05;;;;;;;8.15;6.82;;;7.80;98.20;;;;;;5061960;28;20301;-87
2022/04/04 23:42:59;;;;;;;;;;;;;;;;;;;;;
